sensor_id;sensor_type;location;lat;lon;timestamp;P1;durP1;ratioP1;P2;durP2;ratioP2
5040;SDS011;2539;52.568;13.364;2023-01-01T00:01:12;29.33;;;18.57;;
5040;SDS011;2539;52.568;13.364;2023-01-01T00:03:40;26.70;;;17.17;;
5040;SDS011;2539;52.568;13.364;2023-01-01T00:06:07;19.60;;;12.90;;
5040;SDS011;2539;52.568;13.364;2023-01-01T00:08:34;28.53;;;21.07;;
5040;SDS011;2539;52.568;13.364;2023-01-01T00:11:01;35.00;;;24.70;;
5040;SDS011;2539;52.568;13.364;2023-01-01T00:13:27;12.00;;;9.17;;
5040;SDS011;2539;52.568;13.364;2023-01-01T00:15:53;20.10;;;15.77;;
5040;SDS011;2539;52.568;13.364;2023-01-01T00:18:20;12.40;;;9.23;;
5040;SDS011;2539;52.568;13.364;2023-01-01T00:20:47;18.93;;;12.43;;
5040;SDS011;2539;52.568;13.364;2023-01-01T00:23:13;13.10;;;8.07;;
5040;SDS011;2539;52.568;13.364;2023-01-01T00:25:39;12.60;;;6.73;;
5040;SDS011;2539;52.568;13.364;2023-01-01T00:28:05;18.83;;;7.17;;
5040;SDS011;2539;52.568;13.364;2023-01-01T00:30:37;11.83;;;7.07;;
5040;SDS011;2539;52.568;13.364;2023-01-01T00:33:04;9.00;;;6.67;;
5040;SDS011;2539;52.568;13.364;2023-01-01T00:35:30;11.67;;;7.23;;
5040;SDS011;2539;52.568;13.364;2023-01-01T00:37:58;11.50;;;8.60;;
5040;SDS011;2539;52.568;13.364;2023-01-01T00:40:24;8.50;;;5.70;;
5040;SDS011;2539;52.568;13.364;2023-01-01T00:42:50;10.50;;;5.73;;
5040;SDS011;2539;52.568;13.364;2023-01-01T00:45:17;11.90;;;6.40;;
5040;SDS011;2539;52.568;13.364;2023-01-01T00:47:43;10.80;;;5.80;;
5040;SDS011;2539;52.568;13.364;2023-01-01T00:50:09;10.10;;;4.83;;
5040;SDS011;2539;52.568;13.364;2023-01-01T00:52:35;7.40;;;4.30;;
5040;SDS011;2539;52.568;13.364;2023-01-01T00:55:02;7.77;;;4.37;;
5040;SDS011;2539;52.568;13.364;2023-01-01T00:57:28;9.07;;;4.20;;
5040;SDS011;2539;52.568;13.364;2023-01-01T00:59:54;35.93;;;14.63;;
5040;SDS011;2539;52.568;13.364;2023-01-01T01:02:21;13.53;;;6.40;;
5040;SDS011;2539;52.568;13.364;2023-01-01T01:04:47;16.53;;;5.80;;
5040;SDS011;2539;52.568;13.364;2023-01-01T01:07:20;4.63;;;3.90;;
5040;SDS011;2539;52.568;13.364;2023-01-01T01:09:47;11.07;;;7.13;;
5040;SDS011;2539;52.568;13.364;2023-01-01T01:12:13;22.37;;;10.97;;
5040;SDS011;2539;52.568;13.364;2023-01-01T01:14:39;13.70;;;5.20;;
5040;SDS011;2539;52.568;13.364;2023-01-01T01:17:06;8.47;;;3.90;;
5040;SDS011;2539;52.568;13.364;2023-01-01T01:19:32;18.03;;;4.30;;
5040;SDS011;2539;52.568;13.364;2023-01-01T01:21:58;5.60;;;3.20;;
5040;SDS011;2539;52.568;13.364;2023-01-01T01:24:24;11.97;;;7.07;;
5040;SDS011;2539;52.568;13.364;2023-01-01T01:26:51;10.37;;;7.00;;
5040;SDS011;2539;52.568;13.364;2023-01-01T01:29:18;9.47;;;4.10;;
5040;SDS011;2539;52.568;13.364;2023-01-01T01:31:44;10.77;;;4.40;;
5040;SDS011;2539;52.568;13.364;2023-01-01T01:34:10;6.30;;;3.60;;
5040;SDS011;2539;52.568;13.364;2023-01-01T01:36:37;7.57;;;4.13;;
5040;SDS011;2539;52.568;13.364;2023-01-01T01:39:03;15.47;;;8.80;;
5040;SDS011;2539;52.568;13.364;2023-01-01T01:41:29;9.27;;;4.37;;
5040;SDS011;2539;52.568;13.364;2023-01-01T01:44:00;6.93;;;4.60;;
5040;SDS011;2539;52.568;13.364;2023-01-01T01:46:32;18.30;;;11.90;;
5040;SDS011;2539;52.568;13.364;2023-01-01T01:49:23;12.27;;;6.40;;
5040;SDS011;2539;52.568;13.364;2023-01-01T01:51:53;7.93;;;5.33;;
5040;SDS011;2539;52.568;13.364;2023-01-01T01:54:21;8.43;;;4.77;;
5040;SDS011;2539;52.568;13.364;2023-01-01T01:56:58;7.97;;;4.30;;
5040;SDS011;2539;52.568;13.364;2023-01-01T01:59:28;8.70;;;4.70;;
5040;SDS011;2539;52.568;13.364;2023-01-01T02:01:58;8.20;;;4.77;;
5040;SDS011;2539;52.568;13.364;2023-01-01T02:04:25;42.37;;;35.63;;
5040;SDS011;2539;52.568;13.364;2023-01-01T02:06:51;8.37;;;6.77;;
5040;SDS011;2539;52.568;13.364;2023-01-01T02:09:18;11.67;;;8.00;;
5040;SDS011;2539;52.568;13.364;2023-01-01T02:11:47;13.80;;;8.20;;
5040;SDS011;2539;52.568;13.364;2023-01-01T02:14:14;7.77;;;5.60;;
5040;SDS011;2539;52.568;13.364;2023-01-01T02:16:57;8.83;;;4.93;;
5040;SDS011;2539;52.568;13.364;2023-01-01T02:25:03;8.57;;;4.70;;
5040;SDS011;2539;52.568;13.364;2023-01-01T02:28:00;8.90;;;5.27;;
5040;SDS011;2539;52.568;13.364;2023-01-01T02:30:40;10.47;;;5.00;;
5040;SDS011;2539;52.568;13.364;2023-01-01T02:33:11;5.47;;;4.50;;
5040;SDS011;2539;52.568;13.364;2023-01-01T02:35:57;9.63;;;4.77;;
5040;SDS011;2539;52.568;13.364;2023-01-01T02:38:28;11.97;;;4.27;;
5040;SDS011;2539;52.568;13.364;2023-01-01T02:41:01;8.83;;;4.10;;
5040;SDS011;2539;52.568;13.364;2023-01-01T02:43:30;19.03;;;10.93;;
5040;SDS011;2539;52.568;13.364;2023-01-01T02:45:56;6.40;;;4.17;;
5040;SDS011;2539;52.568;13.364;2023-01-01T02:53:51;8.90;;;4.10;;
5040;SDS011;2539;52.568;13.364;2023-01-01T02:56:37;8.57;;;4.20;;
5040;SDS011;2539;52.568;13.364;2023-01-01T02:59:19;8.07;;;4.27;;
5040;SDS011;2539;52.568;13.364;2023-01-01T03:07:35;10.90;;;4.10;;
5040;SDS011;2539;52.568;13.364;2023-01-01T03:10:10;9.67;;;4.23;;
5040;SDS011;2539;52.568;13.364;2023-01-01T03:12:50;9.83;;;4.27;;
5040;SDS011;2539;52.568;13.364;2023-01-01T03:15:26;9.40;;;4.23;;
5040;SDS011;2539;52.568;13.364;2023-01-01T03:18:14;7.63;;;4.57;;
5040;SDS011;2539;52.568;13.364;2023-01-01T03:20:46;9.63;;;5.60;;
5040;SDS011;2539;52.568;13.364;2023-01-01T03:23:20;8.63;;;4.23;;
5040;SDS011;2539;52.568;13.364;2023-01-01T03:25:52;6.70;;;3.53;;
5040;SDS011;2539;52.568;13.364;2023-01-01T03:28:32;11.30;;;4.40;;
5040;SDS011;2539;52.568;13.364;2023-01-01T03:31:01;9.17;;;3.80;;
5040;SDS011;2539;52.568;13.364;2023-01-01T03:33:32;5.57;;;3.73;;
5040;SDS011;2539;52.568;13.364;2023-01-01T03:36:48;8.90;;;4.23;;
5040;SDS011;2539;52.568;13.364;2023-01-01T03:38:59;8.27;;;3.70;;
5040;SDS011;2539;52.568;13.364;2023-01-01T03:41:42;8.47;;;4.20;;
5040;SDS011;2539;52.568;13.364;2023-01-01T03:44:16;5.23;;;3.80;;
5040;SDS011;2539;52.568;13.364;2023-01-01T03:46:57;8.70;;;4.00;;
5040;SDS011;2539;52.568;13.364;2023-01-01T03:49:24;7.33;;;4.33;;
5040;SDS011;2539;52.568;13.364;2023-01-01T03:51:54;11.37;;;4.17;;
5040;SDS011;2539;52.568;13.364;2023-01-01T03:55:03;7.67;;;3.40;;
5040;SDS011;2539;52.568;13.364;2023-01-01T04:00:49;9.10;;;4.00;;
5040;SDS011;2539;52.568;13.364;2023-01-01T04:03:23;10.47;;;4.27;;
5040;SDS011;2539;52.568;13.364;2023-01-01T04:05:51;8.30;;;4.10;;
5040;SDS011;2539;52.568;13.364;2023-01-01T04:08:18;7.00;;;4.03;;
5040;SDS011;2539;52.568;13.364;2023-01-01T04:10:45;8.73;;;4.10;;
5040;SDS011;2539;52.568;13.364;2023-01-01T04:13:21;7.57;;;4.37;;
5040;SDS011;2539;52.568;13.364;2023-01-01T04:15:47;6.20;;;4.10;;
5040;SDS011;2539;52.568;13.364;2023-01-01T04:18:14;8.77;;;4.37;;
5040;SDS011;2539;52.568;13.364;2023-01-01T04:20:40;13.90;;;4.57;;
5040;SDS011;2539;52.568;13.364;2023-01-01T04:23:07;12.00;;;4.43;;
5040;SDS011;2539;52.568;13.364;2023-01-01T04:25:33;8.27;;;4.43;;
5040;SDS011;2539;52.568;13.364;2023-01-01T04:27:59;8.07;;;4.33;;
5040;SDS011;2539;52.568;13.364;2023-01-01T04:30:28;9.63;;;4.30;;
5040;SDS011;2539;52.568;13.364;2023-01-01T04:32:54;11.57;;;4.40;;
5040;SDS011;2539;52.568;13.364;2023-01-01T04:35:21;9.30;;;4.60;;
5040;SDS011;2539;52.568;13.364;2023-01-01T04:37:49;11.20;;;6.00;;
5040;SDS011;2539;52.568;13.364;2023-01-01T04:40:15;11.93;;;4.27;;
5040;SDS011;2539;52.568;13.364;2023-01-01T04:42:41;8.23;;;4.07;;
5040;SDS011;2539;52.568;13.364;2023-01-01T04:45:08;8.03;;;4.10;;
5040;SDS011;2539;52.568;13.364;2023-01-01T04:47:36;5.97;;;3.97;;
5040;SDS011;2539;52.568;13.364;2023-01-01T04:50:02;14.77;;;3.90;;
5040;SDS011;2539;52.568;13.364;2023-01-01T04:52:27;6.70;;;3.73;;
5040;SDS011;2539;52.568;13.364;2023-01-01T04:54:53;7.50;;;4.30;;
5040;SDS011;2539;52.568;13.364;2023-01-01T04:57:19;4.57;;;3.17;;
5040;SDS011;2539;52.568;13.364;2023-01-01T04:59:45;10.93;;;4.67;;
5040;SDS011;2539;52.568;13.364;2023-01-01T05:02:12;11.90;;;4.37;;
5040;SDS011;2539;52.568;13.364;2023-01-01T05:04:38;8.60;;;4.13;;
5040;SDS011;2539;52.568;13.364;2023-01-01T05:07:04;7.90;;;4.57;;
5040;SDS011;2539;52.568;13.364;2023-01-01T05:09:30;9.00;;;5.00;;
5040;SDS011;2539;52.568;13.364;2023-01-01T05:11:57;10.40;;;4.40;;
5040;SDS011;2539;52.568;13.364;2023-01-01T05:14:23;6.17;;;3.83;;
5040;SDS011;2539;52.568;13.364;2023-01-01T05:16:49;6.60;;;4.20;;
5040;SDS011;2539;52.568;13.364;2023-01-01T05:19:17;6.10;;;3.57;;
5040;SDS011;2539;52.568;13.364;2023-01-01T05:21:43;6.77;;;3.93;;
5040;SDS011;2539;52.568;13.364;2023-01-01T05:24:11;7.47;;;4.20;;
5040;SDS011;2539;52.568;13.364;2023-01-01T05:26:39;8.40;;;4.00;;
5040;SDS011;2539;52.568;13.364;2023-01-01T05:29:07;13.90;;;4.97;;
5040;SDS011;2539;52.568;13.364;2023-01-01T05:31:34;8.37;;;4.83;;
5040;SDS011;2539;52.568;13.364;2023-01-01T05:34:01;6.50;;;3.93;;
5040;SDS011;2539;52.568;13.364;2023-01-01T05:36:29;9.33;;;4.03;;
5040;SDS011;2539;52.568;13.364;2023-01-01T05:38:58;7.53;;;3.80;;
5040;SDS011;2539;52.568;13.364;2023-01-01T05:41:24;11.03;;;4.33;;
5040;SDS011;2539;52.568;13.364;2023-01-01T05:43:51;7.57;;;3.90;;
5040;SDS011;2539;52.568;13.364;2023-01-01T05:46:19;7.50;;;3.87;;
5040;SDS011;2539;52.568;13.364;2023-01-01T05:48:46;6.70;;;4.10;;
5040;SDS011;2539;52.568;13.364;2023-01-01T05:51:14;10.27;;;4.27;;
5040;SDS011;2539;52.568;13.364;2023-01-01T05:53:45;9.33;;;4.00;;
5040;SDS011;2539;52.568;13.364;2023-01-01T05:56:12;7.07;;;3.90;;
5040;SDS011;2539;52.568;13.364;2023-01-01T05:58:39;10.87;;;4.43;;
5040;SDS011;2539;52.568;13.364;2023-01-01T06:03:59;7.97;;;3.67;;
5040;SDS011;2539;52.568;13.364;2023-01-01T06:06:26;12.90;;;3.70;;
5040;SDS011;2539;52.568;13.364;2023-01-01T06:08:55;10.60;;;3.73;;
5040;SDS011;2539;52.568;13.364;2023-01-01T06:11:23;6.23;;;3.50;;
5040;SDS011;2539;52.568;13.364;2023-01-01T06:13:53;9.00;;;3.67;;
5040;SDS011;2539;52.568;13.364;2023-01-01T06:16:21;6.10;;;3.30;;
5040;SDS011;2539;52.568;13.364;2023-01-01T06:18:48;5.90;;;3.43;;
5040;SDS011;2539;52.568;13.364;2023-01-01T06:21:15;14.70;;;3.03;;
5040;SDS011;2539;52.568;13.364;2023-01-01T06:23:44;6.30;;;3.27;;
5040;SDS011;2539;52.568;13.364;2023-01-01T06:26:12;6.30;;;3.40;;
5040;SDS011;2539;52.568;13.364;2023-01-01T06:28:40;5.87;;;3.43;;
5040;SDS011;2539;52.568;13.364;2023-01-01T06:31:09;7.07;;;3.50;;
5040;SDS011;2539;52.568;13.364;2023-01-01T06:33:37;7.03;;;3.60;;
5040;SDS011;2539;52.568;13.364;2023-01-01T06:36:05;11.47;;;3.33;;
5040;SDS011;2539;52.568;13.364;2023-01-01T06:38:33;6.43;;;3.23;;
5040;SDS011;2539;52.568;13.364;2023-01-01T06:41:02;6.10;;;3.37;;
5040;SDS011;2539;52.568;13.364;2023-01-01T06:43:30;8.43;;;3.13;;
5040;SDS011;2539;52.568;13.364;2023-01-01T06:46:01;8.80;;;3.03;;
5040;SDS011;2539;52.568;13.364;2023-01-01T06:48:33;7.63;;;3.20;;
5040;SDS011;2539;52.568;13.364;2023-01-01T06:51:07;7.50;;;3.63;;
5040;SDS011;2539;52.568;13.364;2023-01-01T06:53:36;9.30;;;3.47;;
5040;SDS011;2539;52.568;13.364;2023-01-01T06:56:03;6.43;;;3.33;;
5040;SDS011;2539;52.568;13.364;2023-01-01T06:58:30;7.23;;;3.87;;
5040;SDS011;2539;52.568;13.364;2023-01-01T07:01:03;5.70;;;3.30;;
5040;SDS011;2539;52.568;13.364;2023-01-01T07:03:50;9.60;;;3.07;;
5040;SDS011;2539;52.568;13.364;2023-01-01T07:06:17;5.87;;;3.10;;
5040;SDS011;2539;52.568;13.364;2023-01-01T07:08:43;8.33;;;3.40;;
5040;SDS011;2539;52.568;13.364;2023-01-01T07:11:09;6.33;;;2.80;;
5040;SDS011;2539;52.568;13.364;2023-01-01T07:13:36;7.30;;;3.20;;
5040;SDS011;2539;52.568;13.364;2023-01-01T07:16:02;5.40;;;3.20;;
5040;SDS011;2539;52.568;13.364;2023-01-01T07:18:28;5.00;;;3.17;;
5040;SDS011;2539;52.568;13.364;2023-01-01T07:20:55;6.33;;;3.67;;
5040;SDS011;2539;52.568;13.364;2023-01-01T07:23:24;7.97;;;3.40;;
5040;SDS011;2539;52.568;13.364;2023-01-01T07:25:51;4.57;;;3.27;;
5040;SDS011;2539;52.568;13.364;2023-01-01T07:28:18;7.93;;;3.73;;
5040;SDS011;2539;52.568;13.364;2023-01-01T07:30:45;5.53;;;3.03;;
5040;SDS011;2539;52.568;13.364;2023-01-01T07:33:12;5.53;;;2.97;;
5040;SDS011;2539;52.568;13.364;2023-01-01T07:35:44;8.07;;;3.83;;
5040;SDS011;2539;52.568;13.364;2023-01-01T07:38:11;14.10;;;4.73;;
5040;SDS011;2539;52.568;13.364;2023-01-01T07:40:38;8.50;;;3.03;;
5040;SDS011;2539;52.568;13.364;2023-01-01T07:43:05;7.10;;;3.40;;
5040;SDS011;2539;52.568;13.364;2023-01-01T07:45:32;12.00;;;4.00;;
5040;SDS011;2539;52.568;13.364;2023-01-01T07:47:59;4.73;;;3.63;;
5040;SDS011;2539;52.568;13.364;2023-01-01T07:50:27;6.40;;;3.53;;
5040;SDS011;2539;52.568;13.364;2023-01-01T07:52:54;5.47;;;3.57;;
5040;SDS011;2539;52.568;13.364;2023-01-01T07:55:20;9.47;;;3.67;;
5040;SDS011;2539;52.568;13.364;2023-01-01T07:57:47;6.40;;;3.10;;
5040;SDS011;2539;52.568;13.364;2023-01-01T08:00:14;5.63;;;3.57;;
5040;SDS011;2539;52.568;13.364;2023-01-01T08:02:42;6.40;;;3.73;;
5040;SDS011;2539;52.568;13.364;2023-01-01T08:05:09;6.13;;;3.40;;
5040;SDS011;2539;52.568;13.364;2023-01-01T08:07:36;5.40;;;3.67;;
5040;SDS011;2539;52.568;13.364;2023-01-01T08:10:03;5.40;;;3.50;;
5040;SDS011;2539;52.568;13.364;2023-01-01T08:12:31;12.13;;;4.50;;
5040;SDS011;2539;52.568;13.364;2023-01-01T08:14:58;6.50;;;3.97;;
5040;SDS011;2539;52.568;13.364;2023-01-01T08:17:24;6.70;;;4.30;;
5040;SDS011;2539;52.568;13.364;2023-01-01T08:19:50;5.10;;;4.13;;
5040;SDS011;2539;52.568;13.364;2023-01-01T08:22:17;5.30;;;4.30;;
5040;SDS011;2539;52.568;13.364;2023-01-01T08:24:43;5.30;;;3.90;;
5040;SDS011;2539;52.568;13.364;2023-01-01T08:27:13;6.63;;;3.83;;
5040;SDS011;2539;52.568;13.364;2023-01-01T08:29:41;7.03;;;4.23;;
5040;SDS011;2539;52.568;13.364;2023-01-01T08:32:08;5.10;;;4.10;;
5040;SDS011;2539;52.568;13.364;2023-01-01T08:34:35;5.77;;;3.70;;
5040;SDS011;2539;52.568;13.364;2023-01-01T08:37:01;5.73;;;4.20;;
5040;SDS011;2539;52.568;13.364;2023-01-01T08:39:28;5.30;;;3.77;;
5040;SDS011;2539;52.568;13.364;2023-01-01T08:41:54;4.30;;;3.80;;
5040;SDS011;2539;52.568;13.364;2023-01-01T08:44:20;7.03;;;4.17;;
5040;SDS011;2539;52.568;13.364;2023-01-01T08:46:47;5.10;;;4.03;;
5040;SDS011;2539;52.568;13.364;2023-01-01T08:49:13;8.20;;;4.87;;
5040;SDS011;2539;52.568;13.364;2023-01-01T08:51:39;8.30;;;4.60;;
5040;SDS011;2539;52.568;13.364;2023-01-01T08:54:05;7.73;;;4.10;;
5040;SDS011;2539;52.568;13.364;2023-01-01T08:56:32;5.27;;;4.43;;
5040;SDS011;2539;52.568;13.364;2023-01-01T08:58:59;4.50;;;4.00;;
5040;SDS011;2539;52.568;13.364;2023-01-01T09:01:25;8.10;;;4.67;;
5040;SDS011;2539;52.568;13.364;2023-01-01T09:03:52;8.97;;;4.67;;
5040;SDS011;2539;52.568;13.364;2023-01-01T09:06:19;5.47;;;4.53;;
5040;SDS011;2539;52.568;13.364;2023-01-01T09:08:45;11.20;;;4.23;;
5040;SDS011;2539;52.568;13.364;2023-01-01T09:11:21;7.17;;;4.50;;
5040;SDS011;2539;52.568;13.364;2023-01-01T09:13:49;6.17;;;4.10;;
5040;SDS011;2539;52.568;13.364;2023-01-01T09:16:15;7.53;;;4.50;;
5040;SDS011;2539;52.568;13.364;2023-01-01T09:18:40;5.70;;;4.20;;
5040;SDS011;2539;52.568;13.364;2023-01-01T09:21:06;4.83;;;3.90;;
5040;SDS011;2539;52.568;13.364;2023-01-01T09:23:33;6.70;;;4.20;;
5040;SDS011;2539;52.568;13.364;2023-01-01T09:26:03;5.80;;;4.30;;
5040;SDS011;2539;52.568;13.364;2023-01-01T09:28:30;6.70;;;4.50;;
5040;SDS011;2539;52.568;13.364;2023-01-01T09:30:57;7.33;;;4.17;;
5040;SDS011;2539;52.568;13.364;2023-01-01T09:33:27;6.73;;;3.90;;
5040;SDS011;2539;52.568;13.364;2023-01-01T09:35:53;7.90;;;4.60;;
5040;SDS011;2539;52.568;13.364;2023-01-01T09:38:20;7.20;;;3.97;;
5040;SDS011;2539;52.568;13.364;2023-01-01T09:43:31;6.20;;;4.07;;
5040;SDS011;2539;52.568;13.364;2023-01-01T09:46:23;5.07;;;3.90;;
5040;SDS011;2539;52.568;13.364;2023-01-01T09:48:52;7.03;;;3.70;;
5040;SDS011;2539;52.568;13.364;2023-01-01T09:51:26;6.00;;;4.00;;
5040;SDS011;2539;52.568;13.364;2023-01-01T09:54:00;6.40;;;3.60;;
5040;SDS011;2539;52.568;13.364;2023-01-01T09:56:45;8.13;;;3.77;;
5040;SDS011;2539;52.568;13.364;2023-01-01T09:59:16;5.57;;;3.53;;
5040;SDS011;2539;52.568;13.364;2023-01-01T10:01:51;8.50;;;4.10;;
5040;SDS011;2539;52.568;13.364;2023-01-01T10:04:40;7.90;;;4.20;;
5040;SDS011;2539;52.568;13.364;2023-01-01T10:07:46;6.97;;;3.73;;
5040;SDS011;2539;52.568;13.364;2023-01-01T10:13:14;5.80;;;3.70;;
5040;SDS011;2539;52.568;13.364;2023-01-01T10:15:53;4.20;;;3.43;;
5040;SDS011;2539;52.568;13.364;2023-01-01T10:18:24;8.80;;;4.23;;
5040;SDS011;2539;52.568;13.364;2023-01-01T10:21:16;4.17;;;2.80;;
5040;SDS011;2539;52.568;13.364;2023-01-01T10:23:55;5.60;;;3.47;;
5040;SDS011;2539;52.568;13.364;2023-01-01T10:26:26;6.10;;;3.30;;
5040;SDS011;2539;52.568;13.364;2023-01-01T10:31:33;5.97;;;3.83;;
5040;SDS011;2539;52.568;13.364;2023-01-01T10:34:21;5.90;;;3.73;;
5040;SDS011;2539;52.568;13.364;2023-01-01T10:36:48;5.80;;;3.27;;
5040;SDS011;2539;52.568;13.364;2023-01-01T10:39:21;8.90;;;4.93;;
5040;SDS011;2539;52.568;13.364;2023-01-01T10:41:48;5.93;;;3.90;;
5040;SDS011;2539;52.568;13.364;2023-01-01T10:44:16;5.53;;;3.40;;
5040;SDS011;2539;52.568;13.364;2023-01-01T10:46:59;8.63;;;3.53;;
5040;SDS011;2539;52.568;13.364;2023-01-01T10:49:52;8.10;;;3.10;;
5040;SDS011;2539;52.568;13.364;2023-01-01T10:52:37;6.30;;;3.63;;
5040;SDS011;2539;52.568;13.364;2023-01-01T10:55:05;4.83;;;3.03;;
5040;SDS011;2539;52.568;13.364;2023-01-01T10:57:52;6.93;;;3.40;;
5040;SDS011;2539;52.568;13.364;2023-01-01T11:00:23;8.03;;;3.17;;
5040;SDS011;2539;52.568;13.364;2023-01-01T11:03:12;5.80;;;3.30;;
5040;SDS011;2539;52.568;13.364;2023-01-01T11:05:59;4.40;;;3.03;;
5040;SDS011;2539;52.568;13.364;2023-01-01T11:08:28;6.07;;;3.40;;
5040;SDS011;2539;52.568;13.364;2023-01-01T11:10:59;4.60;;;3.10;;
5040;SDS011;2539;52.568;13.364;2023-01-01T11:13:27;6.53;;;3.07;;
5040;SDS011;2539;52.568;13.364;2023-01-01T11:15:55;5.50;;;3.47;;
5040;SDS011;2539;52.568;13.364;2023-01-01T11:18:24;4.00;;;3.10;;
5040;SDS011;2539;52.568;13.364;2023-01-01T11:20:53;6.20;;;2.90;;
5040;SDS011;2539;52.568;13.364;2023-01-01T11:23:28;7.33;;;3.40;;
5040;SDS011;2539;52.568;13.364;2023-01-01T11:26:05;6.50;;;2.63;;
5040;SDS011;2539;52.568;13.364;2023-01-01T11:28:57;6.60;;;3.87;;
5040;SDS011;2539;52.568;13.364;2023-01-01T11:31:27;4.47;;;2.73;;
5040;SDS011;2539;52.568;13.364;2023-01-01T11:33:58;5.60;;;3.13;;
5040;SDS011;2539;52.568;13.364;2023-01-01T11:38:50;5.50;;;2.70;;
5040;SDS011;2539;52.568;13.364;2023-01-01T11:41:38;6.07;;;2.77;;
5040;SDS011;2539;52.568;13.364;2023-01-01T11:44:07;5.70;;;3.13;;
5040;SDS011;2539;52.568;13.364;2023-01-01T11:46:36;4.60;;;2.60;;
5040;SDS011;2539;52.568;13.364;2023-01-01T11:49:02;7.33;;;2.97;;
5040;SDS011;2539;52.568;13.364;2023-01-01T11:51:38;4.10;;;2.70;;
5040;SDS011;2539;52.568;13.364;2023-01-01T11:54:08;8.70;;;3.07;;
5040;SDS011;2539;52.568;13.364;2023-01-01T11:56:35;7.43;;;2.40;;
5040;SDS011;2539;52.568;13.364;2023-01-01T11:59:05;7.20;;;2.73;;
5040;SDS011;2539;52.568;13.364;2023-01-01T12:01:43;5.20;;;2.90;;
5040;SDS011;2539;52.568;13.364;2023-01-01T12:04:23;9.53;;;2.83;;
5040;SDS011;2539;52.568;13.364;2023-01-01T12:07:22;4.10;;;2.70;;
5040;SDS011;2539;52.568;13.364;2023-01-01T12:09:56;7.00;;;3.13;;
5040;SDS011;2539;52.568;13.364;2023-01-01T12:12:29;4.77;;;2.70;;
5040;SDS011;2539;52.568;13.364;2023-01-01T12:17:51;4.70;;;3.20;;
5040;SDS011;2539;52.568;13.364;2023-01-01T12:20:31;5.97;;;2.97;;
5040;SDS011;2539;52.568;13.364;2023-01-01T12:23:10;4.47;;;3.20;;
5040;SDS011;2539;52.568;13.364;2023-01-01T12:25:38;5.20;;;3.10;;
5040;SDS011;2539;52.568;13.364;2023-01-01T12:28:14;5.17;;;2.53;;
5040;SDS011;2539;52.568;13.364;2023-01-01T12:31:04;5.87;;;2.60;;
5040;SDS011;2539;52.568;13.364;2023-01-01T12:42:16;5.60;;;2.90;;
5040;SDS011;2539;52.568;13.364;2023-01-01T12:47:54;6.73;;;3.57;;
5040;SDS011;2539;52.568;13.364;2023-01-01T12:53:29;4.13;;;2.80;;
5040;SDS011;2539;52.568;13.364;2023-01-01T12:59:22;4.97;;;3.30;;
5040;SDS011;2539;52.568;13.364;2023-01-01T13:01:55;13.30;;;3.77;;
5040;SDS011;2539;52.568;13.364;2023-01-01T13:04:25;7.07;;;3.03;;
5040;SDS011;2539;52.568;13.364;2023-01-01T13:06:53;5.07;;;3.17;;
5040;SDS011;2539;52.568;13.364;2023-01-01T13:09:29;4.60;;;3.27;;
5040;SDS011;2539;52.568;13.364;2023-01-01T13:12:03;8.47;;;3.20;;
5040;SDS011;2539;52.568;13.364;2023-01-01T13:14:36;5.03;;;2.90;;
5040;SDS011;2539;52.568;13.364;2023-01-01T13:17:04;12.50;;;3.00;;
5040;SDS011;2539;52.568;13.364;2023-01-01T13:19:57;7.23;;;2.87;;
5040;SDS011;2539;52.568;13.364;2023-01-01T13:25:01;6.80;;;2.60;;
5040;SDS011;2539;52.568;13.364;2023-01-01T13:33:23;6.10;;;3.30;;
5040;SDS011;2539;52.568;13.364;2023-01-01T14:03:39;3.60;;;2.90;;
5040;SDS011;2539;52.568;13.364;2023-01-01T14:06:10;5.07;;;2.87;;
5040;SDS011;2539;52.568;13.364;2023-01-01T14:08:39;6.53;;;3.00;;
5040;SDS011;2539;52.568;13.364;2023-01-01T14:11:19;6.03;;;2.83;;
5040;SDS011;2539;52.568;13.364;2023-01-01T14:13:46;7.67;;;3.00;;
5040;SDS011;2539;52.568;13.364;2023-01-01T14:16:13;3.77;;;3.37;;
5040;SDS011;2539;52.568;13.364;2023-01-01T14:18:44;5.43;;;2.97;;
5040;SDS011;2539;52.568;13.364;2023-01-01T14:21:14;5.10;;;3.07;;
5040;SDS011;2539;52.568;13.364;2023-01-01T14:23:43;4.80;;;3.13;;
5040;SDS011;2539;52.568;13.364;2023-01-01T14:26:17;8.60;;;3.20;;
5040;SDS011;2539;52.568;13.364;2023-01-01T14:28:45;5.03;;;2.83;;
5040;SDS011;2539;52.568;13.364;2023-01-01T14:31:13;13.97;;;3.17;;
5040;SDS011;2539;52.568;13.364;2023-01-01T14:33:42;8.80;;;3.20;;
5040;SDS011;2539;52.568;13.364;2023-01-01T14:36:15;9.70;;;3.80;;
5040;SDS011;2539;52.568;13.364;2023-01-01T14:38:47;4.40;;;2.80;;
5040;SDS011;2539;52.568;13.364;2023-01-01T14:41:23;5.03;;;3.20;;
5040;SDS011;2539;52.568;13.364;2023-01-01T14:44:03;6.93;;;3.10;;
5040;SDS011;2539;52.568;13.364;2023-01-01T14:46:37;6.40;;;2.90;;
5040;SDS011;2539;52.568;13.364;2023-01-01T14:49:07;10.20;;;4.20;;
5040;SDS011;2539;52.568;13.364;2023-01-01T14:51:36;13.13;;;4.13;;
5040;SDS011;2539;52.568;13.364;2023-01-01T14:54:10;7.83;;;3.80;;
5040;SDS011;2539;52.568;13.364;2023-01-01T14:56:41;6.30;;;4.70;;
5040;SDS011;2539;52.568;13.364;2023-01-01T14:59:25;8.07;;;3.17;;
5040;SDS011;2539;52.568;13.364;2023-01-01T15:02:08;4.53;;;2.60;;
5040;SDS011;2539;52.568;13.364;2023-01-01T15:04:36;7.90;;;3.30;;
5040;SDS011;2539;52.568;13.364;2023-01-01T15:07:02;11.43;;;3.83;;
5040;SDS011;2539;52.568;13.364;2023-01-01T15:09:29;8.83;;;3.40;;
5040;SDS011;2539;52.568;13.364;2023-01-01T15:11:57;6.77;;;3.20;;
5040;SDS011;2539;52.568;13.364;2023-01-01T15:17:05;9.27;;;4.20;;
5040;SDS011;2539;52.568;13.364;2023-01-01T15:19:39;6.20;;;4.23;;
5040;SDS011;2539;52.568;13.364;2023-01-01T15:22:10;13.10;;;5.43;;
5040;SDS011;2539;52.568;13.364;2023-01-01T15:24:58;10.60;;;5.33;;
5040;SDS011;2539;52.568;13.364;2023-01-01T15:27:32;6.70;;;3.20;;
5040;SDS011;2539;52.568;13.364;2023-01-01T15:30:01;7.27;;;3.50;;
5040;SDS011;2539;52.568;13.364;2023-01-01T15:32:33;7.80;;;3.30;;
5040;SDS011;2539;52.568;13.364;2023-01-01T15:35:02;12.57;;;3.70;;
5040;SDS011;2539;52.568;13.364;2023-01-01T15:37:45;6.97;;;3.90;;
5040;SDS011;2539;52.568;13.364;2023-01-01T15:42:44;9.83;;;7.07;;
5040;SDS011;2539;52.568;13.364;2023-01-01T15:45:19;14.67;;;10.17;;
5040;SDS011;2539;52.568;13.364;2023-01-01T15:47:53;10.07;;;7.60;;
5040;SDS011;2539;52.568;13.364;2023-01-01T15:52:48;23.57;;;18.00;;
5040;SDS011;2539;52.568;13.364;2023-01-01T15:55:17;20.20;;;17.63;;
5040;SDS011;2539;52.568;13.364;2023-01-01T15:57:44;13.53;;;7.50;;
5040;SDS011;2539;52.568;13.364;2023-01-01T16:00:21;12.33;;;8.50;;
5040;SDS011;2539;52.568;13.364;2023-01-01T16:02:50;15.93;;;10.60;;
5040;SDS011;2539;52.568;13.364;2023-01-01T16:05:20;19.17;;;14.63;;
5040;SDS011;2539;52.568;13.364;2023-01-01T16:07:58;27.80;;;24.63;;
5040;SDS011;2539;52.568;13.364;2023-01-01T16:10:26;34.70;;;24.33;;
5040;SDS011;2539;52.568;13.364;2023-01-01T16:12:52;27.00;;;17.60;;
5040;SDS011;2539;52.568;13.364;2023-01-01T16:15:19;17.27;;;14.70;;
5040;SDS011;2539;52.568;13.364;2023-01-01T16:17:45;10.13;;;8.00;;
5040;SDS011;2539;52.568;13.364;2023-01-01T16:20:14;6.57;;;4.70;;
5040;SDS011;2539;52.568;13.364;2023-01-01T16:22:42;9.47;;;5.93;;
5040;SDS011;2539;52.568;13.364;2023-01-01T16:25:14;61.00;;;44.07;;
5040;SDS011;2539;52.568;13.364;2023-01-01T16:27:44;36.73;;;22.67;;
5040;SDS011;2539;52.568;13.364;2023-01-01T16:30:11;52.97;;;29.57;;
5040;SDS011;2539;52.568;13.364;2023-01-01T16:32:38;30.10;;;17.47;;
5040;SDS011;2539;52.568;13.364;2023-01-01T16:35:05;38.83;;;25.53;;
5040;SDS011;2539;52.568;13.364;2023-01-01T16:37:36;33.23;;;23.70;;
5040;SDS011;2539;52.568;13.364;2023-01-01T16:40:02;20.83;;;16.50;;
5040;SDS011;2539;52.568;13.364;2023-01-01T16:42:30;36.53;;;25.53;;
5040;SDS011;2539;52.568;13.364;2023-01-01T16:44:56;53.37;;;39.57;;
5040;SDS011;2539;52.568;13.364;2023-01-01T16:47:23;66.13;;;52.50;;
5040;SDS011;2539;52.568;13.364;2023-01-01T16:49:49;54.73;;;41.83;;
5040;SDS011;2539;52.568;13.364;2023-01-01T16:52:15;31.47;;;20.23;;
5040;SDS011;2539;52.568;13.364;2023-01-01T16:54:42;22.53;;;13.20;;